createdAt,value
2023-08-08T00:03:46.628Z,13.40
2023-08-08T00:08:48.540Z,13.30
2023-08-08T00:13:50.934Z,13.30
2023-08-08T00:18:54.857Z,13.20
2023-08-08T00:23:56.751Z,13.20
2023-08-08T00:28:58.623Z,13.10
2023-08-08T00:34:00.606Z,13.10
2023-08-08T00:39:02.712Z,13.10
2023-08-08T00:44:04.675Z,13.10
2023-08-08T00:49:06.620Z,13.00
2023-08-08T00:54:08.803Z,13.00
2023-08-08T00:59:13.334Z,13.00
2023-08-08T01:04:15.270Z,12.90
2023-08-08T01:09:27.236Z,12.90
2023-08-08T01:14:33.781Z,12.90
2023-08-08T01:19:35.752Z,12.80
2023-08-08T01:24:38.451Z,12.80
2023-08-08T01:29:40.667Z,12.80
2023-08-08T01:34:42.679Z,12.70
2023-08-08T01:39:45.191Z,12.70
2023-08-08T01:44:47.122Z,12.70
2023-08-08T01:49:49.030Z,12.60
2023-08-08T01:54:51.051Z,12.60
2023-08-08T01:59:53.954Z,12.50
2023-08-08T02:04:55.807Z,12.50
2023-08-08T02:09:57.670Z,12.50
2023-08-08T02:14:59.827Z,12.60
2023-08-08T02:20:01.824Z,12.50
2023-08-08T02:25:04.362Z,12.50
2023-08-08T02:30:06.987Z,12.40
2023-08-08T02:35:09.440Z,12.40
2023-08-08T02:40:11.830Z,12.40
2023-08-08T02:45:13.837Z,12.30
2023-08-08T02:50:15.852Z,12.30
2023-08-08T02:55:18.032Z,12.30
2023-08-08T03:00:20.030Z,12.30
2023-08-08T03:05:21.911Z,12.20
2023-08-08T03:10:23.960Z,12.20
2023-08-08T03:15:25.925Z,12.20
2023-08-08T03:20:27.847Z,12.10
2023-08-08T03:25:30.015Z,12.10
2023-08-08T03:30:31.900Z,12.10
2023-08-08T03:35:34.011Z,12.00
2023-08-08T03:40:35.884Z,12.00
2023-08-08T03:45:37.818Z,12.00
2023-08-08T03:50:39.750Z,12.10
2023-08-08T03:55:41.655Z,12.10
2023-08-08T04:00:47.571Z,12.20
2023-08-08T04:05:49.737Z,12.30
2023-08-08T04:10:51.674Z,12.40
2023-08-08T04:15:53.561Z,12.60
2023-08-08T04:20:55.503Z,12.70
2023-08-08T04:25:57.749Z,12.80
2023-08-08T04:30:59.676Z,12.80
2023-08-08T04:36:01.586Z,12.90
2023-08-08T04:41:03.443Z,13.00
2023-08-08T04:46:05.919Z,13.00
2023-08-08T04:51:08.111Z,13.10
2023-08-08T04:56:10.042Z,13.10
2023-08-08T05:01:15.544Z,13.20
2023-08-08T05:06:17.737Z,13.20
2023-08-08T05:11:19.721Z,13.30
2023-08-08T05:16:21.691Z,13.50
2023-08-08T05:21:23.579Z,13.60
2023-08-08T05:26:25.618Z,13.80
2023-08-08T05:31:27.457Z,14.10
2023-08-08T05:36:29.339Z,14.30
2023-08-08T05:41:31.187Z,14.60
2023-08-08T05:46:33.112Z,14.90
2023-08-08T05:51:34.971Z,15.20
2023-08-08T05:56:37.934Z,15.40
2023-08-08T06:01:40.120Z,15.50
2023-08-08T06:06:43.374Z,15.50
2023-08-08T06:11:46.435Z,15.70
2023-08-08T06:16:48.444Z,15.80
2023-08-08T06:21:51.398Z,15.90
2023-08-08T06:26:53.669Z,16.10
2023-08-08T06:31:55.801Z,16.50
2023-08-08T06:36:57.744Z,17.10
2023-08-08T06:41:59.975Z,17.70
2023-08-08T06:47:03.630Z,18.30
2023-08-08T06:52:07.026Z,19.00
2023-08-08T06:57:08.974Z,19.20
2023-08-08T07:02:13.309Z,19.00
2023-08-08T07:07:15.695Z,18.70
2023-08-08T07:12:17.684Z,18.50
2023-08-08T07:17:19.642Z,18.40
2023-08-08T07:22:23.532Z,18.50
2023-08-08T07:27:27.772Z,18.70
2023-08-08T07:32:30.927Z,18.90
2023-08-08T07:37:35.605Z,18.90
2023-08-08T07:42:37.480Z,19.00
2023-08-08T07:47:39.387Z,19.10
2023-08-08T07:52:41.616Z,19.40
2023-08-08T07:57:43.552Z,19.90
2023-08-08T08:02:46.560Z,20.00
2023-08-08T08:07:48.901Z,20.10
2023-08-08T08:12:50.824Z,20.20
2023-08-08T08:17:52.783Z,20.80
2023-08-08T08:22:54.729Z,21.10
2023-08-08T08:27:57.031Z,21.20
2023-08-08T08:32:58.953Z,21.20
2023-08-08T08:38:01.965Z,21.30
2023-08-08T08:43:04.725Z,21.20
2023-08-08T08:48:10.597Z,20.80
2023-08-08T08:53:12.710Z,20.40
2023-08-08T08:58:20.320Z,20.30
2023-08-08T09:03:22.613Z,20.30
2023-08-08T09:08:24.703Z,20.50
2023-08-08T09:13:27.759Z,20.70
2023-08-08T09:18:29.676Z,20.90
2023-08-08T09:23:31.738Z,21.30
2023-08-08T09:28:34.184Z,22.20
2023-08-08T09:33:40.998Z,22.90
2023-08-08T09:38:43.030Z,23.60
2023-08-08T09:43:45.797Z,23.90
2023-08-08T09:48:48.047Z,24.00
2023-08-08T09:53:50.295Z,24.00
2023-08-08T09:58:53.180Z,24.30
2023-08-08T10:03:55.275Z,24.70
2023-08-08T10:08:57.264Z,25.20
2023-08-08T10:14:01.438Z,25.00
2023-08-08T10:19:04.956Z,25.10
2023-08-08T10:24:11.910Z,25.30
2023-08-08T10:29:19.328Z,25.30
2023-08-08T10:34:22.913Z,25.70
2023-08-08T10:39:25.993Z,25.80
2023-08-08T10:44:28.081Z,26.00
2023-08-08T10:49:29.963Z,25.80
2023-08-08T10:54:33.403Z,25.00
2023-08-08T10:59:39.022Z,23.90
2023-08-08T11:04:42.029Z,23.20
2023-08-08T11:09:44.557Z,22.90
2023-08-08T11:14:46.431Z,22.70
2023-08-08T11:19:48.601Z,22.50
2023-08-08T11:24:51.868Z,22.30
2023-08-08T11:29:54.022Z,21.90
2023-08-08T11:34:56.407Z,21.80
2023-08-08T11:47:05.103Z,22.20
2023-08-08T11:52:09.535Z,22.90
2023-08-08T11:57:11.627Z,23.20
2023-08-08T12:02:13.774Z,23.70
2023-08-08T12:07:15.817Z,24.40
2023-08-08T12:12:20.346Z,24.90
2023-08-08T12:17:25.607Z,25.20
2023-08-08T12:22:28.217Z,25.50
2023-08-08T12:27:31.512Z,25.70
2023-08-08T12:32:34.178Z,25.80
2023-08-08T12:37:36.043Z,25.80
2023-08-08T12:42:37.972Z,25.60
2023-08-08T12:47:39.972Z,25.30
2023-08-08T12:52:41.924Z,25.30
2023-08-08T12:57:43.795Z,25.30
2023-08-08T13:02:45.924Z,25.30
2023-08-08T13:07:47.872Z,25.20
2023-08-08T13:12:50.253Z,25.30
2023-08-08T13:17:52.172Z,25.10
2023-08-08T13:22:54.109Z,25.00
2023-08-08T13:27:55.978Z,25.10
2023-08-08T13:32:59.430Z,25.20
2023-08-08T13:38:02.546Z,25.20
2023-08-08T13:43:04.800Z,25.10
2023-08-08T13:48:06.976Z,25.20
2023-08-08T13:53:08.985Z,25.10
2023-08-08T13:58:11.231Z,24.90
2023-08-08T14:09:46.046Z,24.80
2023-08-08T14:14:47.911Z,25.00
2023-08-08T14:19:49.790Z,24.90
2023-08-08T14:24:51.724Z,24.50
2023-08-08T14:29:53.678Z,24.30
2023-08-08T14:34:57.495Z,24.10
2023-08-08T14:40:01.659Z,23.80
2023-08-08T14:45:03.875Z,23.40
2023-08-08T14:50:09.332Z,23.20
2023-08-08T14:55:12.588Z,23.10
2023-08-08T15:00:14.932Z,23.50
2023-08-08T15:05:17.319Z,24.00
2023-08-08T15:10:19.262Z,24.20
2023-08-08T15:15:25.614Z,24.20
2023-08-08T15:20:27.540Z,24.10
2023-08-08T15:25:29.456Z,23.90
2023-08-08T15:30:31.387Z,23.50
2023-08-08T15:35:33.848Z,23.30
2023-08-08T15:40:35.737Z,23.10
2023-08-08T15:45:37.675Z,22.90
2023-08-08T15:50:39.553Z,22.80
2023-08-08T15:55:41.688Z,22.70
2023-08-08T16:00:43.665Z,22.70
2023-08-08T16:05:45.798Z,22.70
2023-08-08T16:10:48.489Z,22.80
2023-08-08T16:15:51.749Z,22.80
2023-08-08T16:20:55.756Z,22.80
2023-08-08T16:25:57.616Z,22.80
2023-08-08T16:30:59.531Z,22.70
2023-08-08T16:36:28.164Z,22.60
2023-08-08T16:41:30.377Z,22.60
2023-08-08T16:46:33.623Z,22.40
2023-08-08T16:51:40.735Z,22.20
2023-08-08T16:56:42.701Z,22.00
2023-08-08T17:01:45.419Z,21.90
2023-08-08T17:06:47.463Z,21.70
2023-08-08T17:11:49.482Z,21.50
2023-08-08T17:16:53.440Z,21.30
2023-08-08T17:21:58.014Z,21.20
2023-08-08T17:27:01.620Z,21.00
2023-08-08T17:32:04.486Z,20.90
2023-08-08T17:37:06.710Z,20.70
2023-08-08T17:42:08.658Z,20.40
2023-08-08T17:47:10.763Z,20.20
2023-08-08T17:52:12.945Z,19.90
2023-08-08T17:57:24.311Z,19.70
2023-08-08T18:02:26.546Z,19.50
2023-08-08T18:07:28.574Z,19.40
2023-08-08T18:12:30.550Z,19.10
2023-08-08T18:17:32.585Z,19.00
2023-08-08T18:22:34.481Z,18.80
2023-08-08T18:27:36.718Z,18.60
2023-08-08T18:32:38.645Z,18.40
2023-08-08T18:37:40.700Z,18.20
2023-08-08T18:42:45.735Z,18.00
2023-08-08T18:47:47.683Z,17.80
2023-08-08T18:52:52.425Z,17.60
2023-08-08T18:57:54.618Z,17.50
2023-08-08T19:02:56.617Z,17.30
2023-08-08T19:07:58.636Z,17.20
2023-08-08T19:13:00.496Z,17.10
2023-08-08T19:18:02.352Z,16.90
2023-08-08T19:23:04.326Z,16.90
2023-08-08T19:28:07.221Z,16.80
2023-08-08T19:33:11.439Z,16.70
2023-08-08T19:38:14.465Z,16.40
2023-08-08T19:43:16.385Z,16.30
2023-08-08T19:48:18.457Z,16.20
2023-08-08T19:53:21.432Z,16.10
2023-08-08T19:58:23.304Z,15.90
2023-08-08T20:03:25.238Z,15.80
2023-08-08T20:08:27.275Z,15.70
2023-08-08T20:13:29.377Z,15.60
2023-08-08T20:18:31.358Z,15.50
2023-08-08T20:23:33.211Z,15.40
2023-08-08T20:28:35.276Z,15.30
2023-08-08T20:33:37.509Z,15.20
2023-08-08T20:38:39.630Z,15.10
2023-08-08T20:43:42.956Z,15.00
2023-08-08T20:48:45.973Z,15.00
2023-08-08T20:53:48.941Z,14.80
2023-08-08T20:58:50.844Z,14.70
2023-08-08T21:03:52.877Z,14.60
2023-08-08T21:08:55.987Z,14.60
2023-08-08T21:13:57.964Z,14.40
2023-08-08T21:18:59.851Z,14.40
2023-08-08T21:24:02.050Z,14.30
2023-08-08T21:29:04.161Z,14.20
2023-08-08T21:34:06.602Z,14.20
2023-08-08T21:39:08.883Z,14.00
2023-08-08T21:44:10.884Z,14.00
2023-08-08T21:49:12.859Z,13.90
2023-08-08T21:54:15.115Z,13.80
2023-08-08T21:59:17.054Z,13.70
2023-08-08T22:04:22.372Z,13.60
2023-08-08T22:09:27.163Z,13.60
2023-08-08T22:14:29.597Z,13.50
2023-08-08T22:19:31.443Z,13.40
2023-08-08T22:24:34.192Z,13.40
2023-08-08T22:29:39.396Z,13.30
2023-08-08T22:34:41.254Z,13.30
2023-08-08T22:39:43.097Z,13.30
2023-08-08T22:44:45.200Z,13.30
2023-08-08T22:49:47.087Z,13.30
2023-08-08T22:54:50.497Z,13.20
2023-08-08T22:59:52.356Z,13.10
2023-08-08T23:04:54.266Z,13.00
2023-08-08T23:09:56.345Z,12.90
2023-08-08T23:14:58.213Z,12.90
2023-08-08T23:20:00.076Z,13.00
2023-08-08T23:25:02.393Z,13.10
2023-08-08T23:30:05.351Z,13.20
2023-08-08T23:35:07.862Z,13.20
2023-08-08T23:40:10.540Z,13.30
2023-08-08T23:45:13.500Z,13.30
2023-08-08T23:50:15.650Z,13.30
2023-08-08T23:55:17.678Z,13.30
